ESANS EETN-EETN
Flight info
| Callsign | ESANS |
|---|---|
| Flight time | 0h 9m |
| Altitude | 1200 |
| Route | LOCAL |
| Aircraft | C172/L-SY/S |
Departure
| Time | 2026-05-07 12:41 |
|---|---|
| Airport | Lennart Meri Tallinn Airport (EETN) |
Arrival
| Time | 2026-05-07 12:51 |
|---|---|
| Airport | Lennart Meri Tallinn Airport (EETN) |
| Time | Latitude | Longitude | Altitude | Speed | Heading |
|---|---|---|---|---|---|
| 2026-05-07 12:24 | 59.41570 | 24.82934 | 157 ft | 0 kts | 181° |
| 2026-05-07 12:31 | 59.41558 | 24.82976 | 157 ft | 7 kts | 87° |
| 2026-05-07 12:31 | 59.41554 | 24.83083 | 157 ft | 8 kts | 140° |
| 2026-05-07 12:31 | 59.41499 | 24.83044 | 157 ft | 11 kts | 269° |
| 2026-05-07 12:32 | 59.41501 | 24.82864 | 157 ft | 15 kts | 269° |
| 2026-05-07 12:32 | 59.41502 | 24.82644 | 157 ft | 17 kts | 270° |
| 2026-05-07 12:32 | 59.41503 | 24.82396 | 157 ft | 13 kts | 267° |
| 2026-05-07 12:32 | 59.41454 | 24.82358 | 157 ft | 6 kts | 129° |
| 2026-05-07 12:33 | 59.41425 | 24.82457 | 156 ft | 0 kts | 118° |
| 2026-05-07 12:35 | 59.41412 | 24.82502 | 156 ft | 12 kts | 120° |
| 2026-05-07 12:35 | 59.41362 | 24.82726 | 155 ft | 16 kts | 110° |
| 2026-05-07 12:36 | 59.41326 | 24.82655 | 154 ft | 25 kts | 278° |
| 2026-05-07 12:36 | 59.41329 | 24.81963 | 158 ft | 74 kts | 272° |
| 2026-05-07 12:36 | 59.41329 | 24.81299 | 158 ft | 19 kts | 269° |
| 2026-05-07 12:36 | 59.41336 | 24.81210 | 156 ft | 4 kts | 314° |
| 2026-05-07 12:37 | 59.41344 | 24.81157 | 155 ft | 5 kts | 224° |
| 2026-05-07 12:37 | 59.41329 | 24.81185 | 156 ft | 3 kts | 77° |
| 2026-05-07 12:37 | 59.41330 | 24.81191 | 156 ft | 0 kts | 72° |
| 2026-05-07 12:37 | 59.41332 | 24.81218 | 156 ft | 0 kts | 89° |
| 2026-05-07 12:40 | 59.41333 | 24.81271 | 157 ft | 20 kts | 88° |
| 2026-05-07 12:40 | 59.41329 | 24.81870 | 159 ft | 65 kts | 91° |
| 2026-05-07 12:40 | 59.41323 | 24.82932 | 219 ft | 84 kts | 86° |
| 2026-05-07 12:41 | 59.41301 | 24.84116 | 356 ft | 88 kts | 86° |
| 2026-05-07 12:41 | 59.41312 | 24.85334 | 542 ft | 90 kts | 84° |
| 2026-05-07 12:41 | 59.41359 | 24.86549 | 745 ft | 88 kts | 81° |
| 2026-05-07 12:41 | 59.41436 | 24.87736 | 909 ft | 87 kts | 76° |
| 2026-05-07 12:42 | 59.41878 | 24.88294 | 920 ft | 79 kts | 359° |
| 2026-05-07 12:42 | 59.42399 | 24.87945 | 818 ft | 83 kts | 329° |
| 2026-05-07 12:42 | 59.42618 | 24.86920 | 794 ft | 84 kts | 277° |
| 2026-05-07 12:42 | 59.42592 | 24.85777 | 736 ft | 86 kts | 271° |
| 2026-05-07 12:43 | 59.42501 | 24.84645 | 727 ft | 82 kts | 267° |
| 2026-05-07 12:43 | 59.42433 | 24.83483 | 693 ft | 85 kts | 266° |
| 2026-05-07 12:43 | 59.42359 | 24.82361 | 702 ft | 86 kts | 270° |
| 2026-05-07 12:43 | 59.42293 | 24.81206 | 683 ft | 84 kts | 270° |
| 2026-05-07 12:44 | 59.42212 | 24.80166 | 657 ft | 69 kts | 270° |
| 2026-05-07 12:44 | 59.42127 | 24.79167 | 685 ft | 71 kts | 270° |
| 2026-05-07 12:44 | 59.42054 | 24.78279 | 636 ft | 66 kts | 255° |
| 2026-05-07 12:44 | 59.41785 | 24.77501 | 687 ft | 78 kts | 208° |
| 2026-05-07 12:45 | 59.41332 | 24.77821 | 693 ft | 73 kts | 110° |
| 2026-05-07 12:45 | 59.41316 | 24.78829 | 592 ft | 86 kts | 86° |
| 2026-05-07 12:45 | 59.41312 | 24.80013 | 399 ft | 84 kts | 84° |
| 2026-05-07 12:45 | 59.41318 | 24.81076 | 242 ft | 72 kts | 84° |
| 2026-05-07 12:46 | 59.41322 | 24.81963 | 161 ft | 56 kts | 80° |
| 2026-05-07 12:46 | 59.41329 | 24.82668 | 154 ft | 52 kts | 92° |
| 2026-05-07 12:46 | 59.41323 | 24.83513 | 204 ft | 66 kts | 80° |
| 2026-05-07 12:46 | 59.41256 | 24.84407 | 327 ft | 65 kts | 81° |
| 2026-05-07 12:47 | 59.41504 | 24.85002 | 448 ft | 63 kts | 11° |
| 2026-05-07 12:47 | 59.41980 | 24.84977 | 552 ft | 71 kts | 0° |
| 2026-05-07 12:47 | 59.42469 | 24.85060 | 681 ft | 72 kts | 10° |
| 2026-05-07 12:47 | 59.42854 | 24.84412 | 682 ft | 94 kts | 282° |
| 2026-05-07 12:48 | 59.42791 | 24.83080 | 706 ft | 102 kts | 270° |
| 2026-05-07 12:48 | 59.42736 | 24.81695 | 700 ft | 93 kts | 270° |
| 2026-05-07 12:48 | 59.42668 | 24.80372 | 691 ft | 99 kts | 269° |
| 2026-05-07 12:48 | 59.42653 | 24.79031 | 704 ft | 97 kts | 296° |
| 2026-05-07 12:49 | 59.43139 | 24.78396 | 702 ft | 87 kts | 11° |
| 2026-05-07 12:49 | 59.43490 | 24.79264 | 705 ft | 94 kts | 86° |
| 2026-05-07 12:49 | 59.43061 | 24.80166 | 697 ft | 106 kts | 167° |
| 2026-05-07 12:49 | 59.42364 | 24.79824 | 698 ft | 98 kts | 213° |
| 2026-05-07 12:50 | 59.41814 | 24.79291 | 676 ft | 82 kts | 168° |
| 2026-05-07 12:50 | 59.41388 | 24.79813 | 469 ft | 78 kts | 96° |
| 2026-05-07 12:50 | 59.41331 | 24.80822 | 306 ft | 72 kts | 88° |
| 2026-05-07 12:50 | 59.41321 | 24.81750 | 183 ft | 62 kts | 82° |
| 2026-05-07 12:51 | 59.41335 | 24.82475 | 154 ft | 48 kts | 88° |
| 2026-05-07 12:51 | 59.41322 | 24.83235 | 197 ft | 66 kts | 91° |
| 2026-05-07 12:51 | 59.41191 | 24.84154 | 354 ft | 81 kts | 124° |
| 2026-05-07 12:51 | 59.40636 | 24.84590 | 513 ft | 97 kts | 186° |
| 2026-05-07 12:52 | 59.40162 | 24.83718 | 664 ft | 97 kts | 267° |
| 2026-05-07 12:52 | 59.40158 | 24.82360 | 706 ft | 107 kts | 270° |
| 2026-05-07 12:52 | 59.40098 | 24.80833 | 705 ft | 117 kts | 271° |
| 2026-05-07 12:52 | 59.40074 | 24.79264 | 702 ft | 106 kts | 273° |
| 2026-05-07 12:53 | 59.40058 | 24.77932 | 679 ft | 88 kts | 283° |
| 2026-05-07 12:53 | 59.40337 | 24.77251 | 619 ft | 57 kts | 8° |
| 2026-05-07 12:53 | 59.40669 | 24.77584 | 492 ft | 51 kts | 26° |
| 2026-05-07 12:53 | 59.40967 | 24.77901 | 393 ft | 46 kts | 27° |
| 2026-05-07 12:54 | 59.41248 | 24.78264 | 331 ft | 52 kts | 69° |
| 2026-05-07 12:54 | 59.41297 | 24.79004 | 272 ft | 59 kts | 79° |
| 2026-05-07 12:54 | 59.41298 | 24.79800 | 275 ft | 55 kts | 78° |
| 2026-05-07 12:54 | 59.41308 | 24.80532 | 184 ft | 49 kts | 78° |
| 2026-05-07 12:55 | 59.41332 | 24.81119 | 155 ft | 36 kts | 88° |
| 2026-05-07 12:55 | 59.41332 | 24.81531 | 158 ft | 26 kts | 94° |
| 2026-05-07 12:55 | 59.41329 | 24.81837 | 160 ft | 20 kts | 90° |
| 2026-05-07 12:55 | 59.41328 | 24.82136 | 157 ft | 26 kts | 89° |
| 2026-05-07 12:56 | 59.41328 | 24.82470 | 154 ft | 23 kts | 90° |
| 2026-05-07 12:56 | 59.41338 | 24.82681 | 155 ft | 10 kts | 33° |
| 2026-05-07 12:56 | 59.41379 | 24.82619 | 155 ft | 8 kts | 297° |
| 2026-05-07 12:56 | 59.41409 | 24.82516 | 156 ft | 12 kts | 300° |
| 2026-05-07 12:57 | 59.41455 | 24.82357 | 157 ft | 10 kts | 319° |
| 2026-05-07 12:57 | 59.41502 | 24.82402 | 157 ft | 8 kts | 84° |
| 2026-05-07 12:57 | 59.41503 | 24.82608 | 157 ft | 23 kts | 89° |
| 2026-05-07 12:57 | 59.41502 | 24.82945 | 157 ft | 21 kts | 91° |
| 2026-05-07 12:58 | 59.41520 | 24.83087 | 157 ft | 8 kts | 12° |
| 2026-05-07 12:58 | 59.41566 | 24.83101 | 157 ft | 6 kts | 45° |
| 2026-05-07 12:58 | 59.41571 | 24.83177 | 157 ft | 6 kts | 77° |
| 2026-05-07 12:58 | 59.41570 | 24.83255 | 157 ft | 6 kts | 92° |
| 2026-05-07 12:59 | 59.41557 | 24.83323 | 157 ft | 6 kts | 180° |
| 2026-05-07 12:59 | 59.41544 | 24.83377 | 157 ft | 6 kts | 67° |
| 2026-05-07 12:59 | 59.41560 | 24.83389 | 157 ft | 1 kts | 1° |
| 2026-05-07 12:59 | 59.41561 | 24.83390 | 157 ft | 1 kts | 2° |
| 2026-05-07 13:00 | 59.41562 | 24.83390 | 157 ft | 0 kts | 2° |
| 2026-05-07 13:00 | 59.41561 | 24.83390 | 157 ft | 0 kts | 1° |
| 2026-05-07 13:12 | 59.41562 | 24.83390 | 157 ft | 0 kts | 1° |
| 2026-05-07 13:13 | 59.41561 | 24.83390 | 157 ft | 0 kts | 1° |